Time;durP1;ratioP1;P1;durP2;ratioP2;P2;SDS_P1;SDS_P2;PMS_P1;PMS_P2;Temp;Humidity;BMP_temperature;BMP_pressure;BME280_temperature;BME280_humidity;BME280_pressure;Samples;Min_cycle;Max_cycle;Signal;HPM_P1;HPM_P2
2021/05/30 00:00:26;;;;;;;2.12;1.92;;;;;;;16.76;79.66;100156.31;1759270;80;20928;-69
2021/05/30 00:02:53;;;;;;;2.37;1.67;;;;;;;16.71;79.50;100158.07;1759274;80;20952;-68
2021/05/30 00:05:20;;;;;;;1.45;1.35;;;;;;;16.66;79.47;100151.55;1759262;81;20894;-69
2021/05/30 00:07:46;;;;;;;7.65;1.60;;;;;;;16.63;79.36;100151.81;1759371;80;21564;-68
2021/05/30 00:10:14;;;;;;;4.03;1.70;;;;;;;16.58;79.60;100158.86;1759155;80;20983;-68
2021/05/30 00:12:40;;;;;;;2.37;2.12;;;;;;;16.54;79.48;100166.73;1759299;80;21382;-69
2021/05/30 00:15:12;;;;;;;2.25;1.52;;;;;;;16.49;79.55;100160.55;1759291;80;20936;-69
2021/05/30 00:17:39;;;;;;;4.03;1.57;;;;;;;16.48;79.69;100166.01;1759507;81;21062;-68
2021/05/30 00:20:08;;;;;;;3.77;2.30;;;;;;;16.48;79.85;100166.83;1759402;81;21039;-68
2021/05/30 00:22:36;;;;;;;1.57;1.47;;;;;;;16.48;79.47;100163.36;1759134;80;20920;-68
2021/05/30 00:25:05;;;;;;;2.02;1.27;;;;;;;16.46;79.72;100168.78;1759383;80;20996;-69
2021/05/30 00:27:35;;;;;;;3.50;1.65;;;;;;;16.46;79.57;100165.31;1759232;80;20928;-69
2021/05/30 00:30:06;;;;;;;1.35;1.25;;;;;;;16.44;79.12;100173.38;1759220;80;21544;-69
2021/05/30 00:32:32;;;;;;;3.30;1.60;;;;;;;16.44;79.12;100173.38;1759290;80;21683;-69
2021/05/30 00:34:59;;;;;;;2.05;1.40;;;;;;;16.44;79.29;100172.55;1759173;81;20896;-69
2021/05/30 00:37:26;;;;;;;5.70;1.52;;;;;;;16.40;79.13;100177.28;1759373;80;20964;-70
2021/05/30 00:39:54;;;;;;;3.08;1.60;;;;;;;16.34;79.43;100177.38;1759261;81;20951;-69
2021/05/30 00:42:20;;;;;;;2.40;1.30;;;;;;;16.34;79.40;100175.19;1759349;80;20920;-68
2021/05/30 00:44:47;;;;;;;5.28;1.60;;;;;;;16.35;79.36;100179.52;1759188;80;21034;-69
2021/05/30 00:47:14;;;;;;;1.60;1.42;;;;;;;16.34;79.18;100175.19;1759068;80;20986;-70
2021/05/30 00:49:41;;;;;;;2.12;1.62;;;;;;;16.31;79.07;100181.60;1770746;79;20872;-69
2021/05/30 00:52:08;;;;;;;4.60;1.50;;;;;;;16.26;79.25;100183.84;1782125;80;21401;-69
2021/05/30 00:54:37;;;;;;;1.67;1.57;;;;;;;16.23;79.29;100177.98;1782231;80;20876;-69
2021/05/30 00:57:09;;;;;;;3.22;1.35;;;;;;;16.18;79.16;100179.72;1781946;80;21096;-69
2021/05/30 00:59:35;;;;;;;4.72;1.30;;;;;;;16.13;79.05;100184.11;1782129;80;21452;-70
2021/05/30 01:03:43;;;;;;;3.33;1.95;;;;;;;16.08;79.03;100175.77;1815503;79;23044;-69
2021/05/30 01:06:11;;;;;;;2.42;1.60;;;;;;;15.99;79.24;100182.38;1788857;80;20956;-70
2021/05/30 01:08:37;;;;;;;1.65;1.50;;;;;;;15.92;79.46;100183.41;1788783;80;21134;-68
2021/05/30 01:11:06;;;;;;;2.50;1.70;;;;;;;15.90;79.39;100189.33;1788568;80;20921;-70
2021/05/30 01:13:34;;;;;;;3.27;1.22;;;;;;;15.81;79.72;100188.33;1788667;80;20866;-69
2021/05/30 01:16:01;;;;;;;7.00;1.45;;;;;;;15.75;79.30;100185.73;1788822;80;20885;-69
2021/05/30 01:18:28;;;;;;;3.75;1.40;;;;;;;15.75;79.30;100185.73;1788758;80;20990;-68
2021/05/30 01:20:55;;;;;;;2.70;1.62;;;;;;;15.72;79.51;100185.19;1788920;80;21057;-68
2021/05/30 01:23:22;;;;;;;5.17;1.40;;;;;;;15.70;79.87;100187.09;1788552;80;21555;-68
2021/05/30 01:25:49;;;;;;;2.02;1.30;;;;;;;15.66;79.81;100179.09;1788784;80;20929;-68
2021/05/30 01:28:16;;;;;;;1.77;1.52;;;;;;;15.63;79.90;100196.06;1788637;80;21028;-69
2021/05/30 01:30:43;;;;;;;3.65;1.55;;;;;;;15.61;80.09;100193.20;1788787;80;21382;-68
2021/05/30 01:33:10;;;;;;;4.70;1.62;;;;;;;15.57;80.10;100196.59;1788723;80;21045;-68
2021/05/30 01:35:37;;;;;;;2.27;1.20;;;;;;;15.57;80.10;100196.59;1788762;80;20881;-69
2021/05/30 01:38:04;;;;;;;1.40;1.25;;;;;;;15.54;80.21;100190.27;1788806;80;20906;-70
2021/05/30 01:40:31;;;;;;;2.83;1.42;;;;;;;15.51;79.99;100194.48;1788754;80;20945;-68
2021/05/30 01:42:57;;;;;;;1.90;1.60;;;;;;;15.49;80.12;100199.89;1788758;80;21371;-68
2021/05/30 01:45:28;;;;;;;3.58;1.67;;;;;;;15.47;80.28;100201.00;1788674;80;21504;-69
2021/05/30 01:47:53;;;;;;;3.27;1.50;;;;;;;15.47;80.33;100202.31;1788426;80;20886;-68
2021/05/30 01:50:22;;;;;;;5.05;1.85;;;;;;;15.45;80.53;100203.80;1788710;80;20930;-68
2021/05/30 01:52:50;;;;;;;2.62;1.87;;;;;;;15.45;80.37;100205.58;1788764;80;20961;-68
2021/05/30 01:55:22;;;;;;;4.70;1.75;;;;;;;15.42;80.72;100215.10;1788758;80;20977;-68
2021/05/30 01:57:50;;;;;;;4.53;2.35;;;;;;;15.42;80.72;100215.10;1788056;80;21098;-69
2021/05/30 02:00:17;;;;;;;4.10;1.98;;;;;;;15.42;80.50;100213.78;1788577;80;21001;-68
2021/05/30 02:02:48;;;;;;;2.12;1.90;;;;;;;15.40;80.51;100221.83;1782326;80;20894;-69
2021/05/30 02:05:15;;;;;;;7.40;4.30;;;;;;;15.40;80.57;100220.52;1775136;80;20946;-69
2021/05/30 02:07:42;;;;;;;1.45;1.35;;;;;;;15.41;80.54;100215.59;1775137;80;20879;-69
2021/05/30 02:10:12;;;;;;;2.02;1.62;;;;;;;15.40;80.61;100210.44;1775230;80;21503;-69
2021/05/30 02:12:38;;;;;;;4.33;2.05;;;;;;;15.39;80.50;100212.73;1774711;80;20974;-69
2021/05/30 02:15:07;;;;;;;2.98;2.00;;;;;;;15.36;80.52;100209.84;1774620;80;20931;-68
2021/05/30 02:17:35;;;;;;;2.08;1.87;;;;;;;15.34;80.58;100210.50;1774660;80;20994;-68
2021/05/30 02:20:02;;;;;;;1.60;1.50;;;;;;;15.33;80.57;100222.02;1774634;80;20923;-69
2021/05/30 02:22:31;;;;;;;4.28;1.77;;;;;;;15.31;80.46;100227.42;1774631;80;21473;-69
2021/05/30 02:24:58;;;;;;;2.35;1.67;;;;;;;15.31;80.51;100234.03;1774660;80;21020;-69
2021/05/30 02:27:25;;;;;;;2.60;2.02;;;;;;;15.30;80.47;100235.02;1774843;80;20974;-68
2021/05/30 02:29:52;;;;;;;2.55;1.92;;;;;;;15.31;80.58;100231.39;1774513;80;20899;-70
2021/05/30 02:32:19;;;;;;;2.72;1.90;;;;;;;15.31;80.58;100231.39;1774645;80;20966;-69
2021/05/30 02:34:46;;;;;;;1.90;1.30;;;;;;;15.29;80.32;100245.21;1774717;80;21087;-68
2021/05/30 02:37:15;;;;;;;2.22;1.92;;;;;;;15.29;80.32;100245.21;1774641;80;21380;-69
2021/05/30 02:39:42;;;;;;;2.80;1.57;;;;;;;15.26;80.14;100249.45;1774618;80;20982;-69
2021/05/30 02:42:09;;;;;;;4.53;1.50;;;;;;;15.26;80.14;100249.45;1774494;80;21044;-69
2021/05/30 02:44:37;;;;;;;2.33;1.35;;;;;;;15.29;80.43;100253.14;1774615;80;20989;-70
2021/05/30 02:47:04;;;;;;;2.27;1.62;;;;;;;15.29;80.65;100248.34;1774749;80;21988;-70
2021/05/30 02:49:33;;;;;;;1.85;1.60;;;;;;;15.30;80.63;100248.72;1774512;80;20934;-70
2021/05/30 02:52:00;;;;;;;2.75;1.40;;;;;;;15.33;80.49;100247.95;1774523;80;21471;-69
2021/05/30 02:54:27;;;;;;;3.40;1.40;;;;;;;15.36;80.44;100249.98;1774541;80;20899;-69
2021/05/30 02:56:55;;;;;;;3.72;1.50;;;;;;;15.37;80.50;100246.38;1774572;80;20942;-70
2021/05/30 02:59:23;;;;;;;2.90;1.37;;;;;;;15.35;80.59;100242.55;1774594;80;21245;-69
2021/05/30 03:01:50;;;;;;;1.72;1.60;;;;;;;15.36;80.71;100246.02;1774496;80;20930;-69
2021/05/30 03:04:17;;;;;;;4.30;1.52;;;;;;;15.36;80.63;100244.20;1782517;80;20993;-69
2021/05/30 03:06:44;;;;;;;3.17;1.30;;;;;;;15.39;80.51;100245.27;1783107;80;20910;-70
2021/05/30 03:09:10;;;;;;;1.92;1.42;;;;;;;15.42;80.42;100247.64;1783127;80;20934;-70
2021/05/30 03:11:38;;;;;;;1.25;0.93;;;;;;;15.48;80.08;100246.29;1783144;80;21099;-70
2021/05/30 03:14:06;;;;;;;3.67;1.47;;;;;;;15.51;80.35;100253.45;1783077;80;20970;-69
2021/05/30 03:16:33;;;;;;;1.80;1.10;;;;;;;15.51;80.35;100253.45;1783228;80;20874;-70
2021/05/30 03:19:01;;;;;;;1.30;1.20;;;;;;;15.55;79.91;100256.18;1783052;80;21419;-69
2021/05/30 03:21:28;;;;;;;2.37;1.30;;;;;;;15.59;79.76;100254.61;1783212;80;20898;-70
2021/05/30 03:23:55;;;;;;;3.75;1.60;;;;;;;15.60;79.53;100253.14;1783145;80;21015;-70
2021/05/30 03:26:21;;;;;;;1.72;1.25;;;;;;;15.65;79.44;100255.38;1782919;80;21388;-69
2021/05/30 03:28:48;;;;;;;6.17;1.20;;;;;;;15.68;79.26;100253.80;1783090;80;20914;-71
2021/05/30 03:31:15;;;;;;;3.10;1.22;;;;;;;15.70;79.14;100252.70;1783075;80;21459;-68
2021/05/30 03:33:42;;;;;;;1.35;1.20;;;;;;;15.79;79.07;100262.98;1783274;80;20894;-69
2021/05/30 03:36:14;;;;;;;1.25;1.00;;;;;;;15.84;78.87;100261.26;1783097;80;21381;-70
2021/05/30 03:38:38;;;;;;;8.23;1.40;;;;;;;15.89;78.79;100263.83;1782565;80;20910;-71
2021/05/30 03:41:07;;;;;;;5.85;1.20;;;;;;;15.97;78.92;100268.46;1782957;80;21411;-70
2021/05/30 03:43:34;;;;;;;6.08;1.07;;;;;;;15.97;78.92;100268.46;1782970;80;20914;-69
2021/05/30 03:46:02;;;;;;;1.55;1.02;;;;;;;16.00;78.46;100257.59;1783084;80;20878;-70
2021/05/30 03:48:30;;;;;;;1.15;1.05;;;;;;;16.07;78.63;100263.18;1782985;80;21359;-69
2021/05/30 03:50:58;;;;;;;1.32;1.12;;;;;;;16.13;77.97;100267.94;1782976;80;20988;-70
2021/05/30 03:53:24;;;;;;;1.77;1.20;;;;;;;16.19;77.89;100273.18;1783160;80;20871;-69
2021/05/30 03:55:53;;;;;;;2.35;1.10;;;;;;;16.26;77.99;100263.71;1782927;80;21395;-71
2021/05/30 03:58:21;;;;;;;3.35;1.10;;;;;;;16.33;77.64;100265.66;1782945;80;20951;-69
2021/05/30 04:00:47;;;;;;;1.30;1.20;;;;;;;16.37;77.41;100265.73;1782989;80;20952;-69
2021/05/30 04:03:14;;;;;;;2.62;1.20;;;;;;;16.46;77.47;100270.69;1781950;80;20898;-69
2021/05/30 04:05:41;;;;;;;2.08;1.05;;;;;;;16.63;77.38;100265.20;1780340;80;20875;-69
2021/05/30 04:08:08;;;;;;;1.45;1.15;;;;;;;16.98;76.89;100265.10;1780457;80;20942;-69
2021/05/30 04:10:35;;;;;;;2.45;1.10;;;;;;;17.46;75.61;100265.47;1780417;80;20989;-69
2021/05/30 04:13:02;;;;;;;1.32;1.22;;;;;;;17.94;73.98;100268.89;1780145;80;21451;-70
2021/05/30 04:15:31;;;;;;;3.55;1.02;;;;;;;18.43;71.63;100268.92;1780086;80;20898;-69
2021/05/30 04:17:58;;;;;;;1.22;0.90;;;;;;;18.86;69.76;100265.17;1780314;80;20946;-69
2021/05/30 04:20:25;;;;;;;1.25;0.90;;;;;;;19.29;68.38;100258.13;1780254;80;20945;-69
2021/05/30 04:22:52;;;;;;;4.60;1.22;;;;;;;19.74;66.95;100269.52;1780407;80;20902;-70
2021/05/30 04:25:19;;;;;;;1.20;0.82;;;;;;;20.15;65.66;100267.83;1780179;80;21887;-69
2021/05/30 04:27:47;;;;;;;2.60;0.80;;;;;;;20.57;64.34;100269.59;1780088;80;20989;-69
2021/05/30 04:30:16;;;;;;;0.70;0.70;;;;;;;20.98;63.08;100264.73;1780165;80;21400;-70
2021/05/30 04:32:43;;;;;;;1.17;0.75;;;;;;;21.37;62.04;100260.00;1780161;80;20910;-71
2021/05/30 04:35:10;;;;;;;2.45;0.90;;;;;;;21.70;60.60;100261.58;1780328;80;20974;-71
2021/05/30 04:37:37;;;;;;;4.20;2.25;;;;;;;22.02;59.72;100253.58;1780415;80;21692;-69
2021/05/30 04:40:06;;;;;;;1.20;0.68;;;;;;;22.33;58.70;100258.41;1780358;80;20896;-69
2021/05/30 04:42:33;;;;;;;0.88;0.68;;;;;;;22.60;57.82;100245.52;1780331;80;20898;-68
2021/05/30 04:45:00;;;;;;;0.70;0.70;;;;;;;22.91;56.18;100253.95;1782120;80;20963;-69
2021/05/30 04:47:28;;;;;;;0.60;0.60;;;;;;;23.12;54.98;100251.44;1782042;80;20981;-69
2021/05/30 04:49:56;;;;;;;1.50;0.78;;;;;;;23.33;54.51;100258.72;1782658;80;21078;-69
2021/05/30 04:52:23;;;;;;;1.00;1.00;;;;;;;23.57;54.11;100264.31;1782424;80;21048;-67
2021/05/30 04:54:50;;;;;;;2.27;1.12;;;;;;;23.87;53.70;100264.29;1781271;80;21431;-69
2021/05/30 04:57:17;;;;;;;1.98;0.68;;;;;;;24.18;52.77;100257.32;1780507;80;20966;-68
2021/05/30 04:59:45;;;;;;;1.57;0.70;;;;;;;24.58;52.40;100260.42;1780498;80;21298;-68
2021/05/30 05:02:12;;;;;;;2.62;0.40;;;;;;;24.89;50.61;100261.92;1780310;80;21051;-72
2021/05/30 05:04:38;;;;;;;1.52;0.72;;;;;;;25.14;50.53;100262.30;1775481;80;21427;-69
2021/05/30 05:07:07;;;;;;;0.40;0.40;;;;;;;25.44;49.64;100260.25;1774266;80;20966;-70
2021/05/30 05:09:35;;;;;;;0.72;0.30;;;;;;;25.66;48.35;100268.22;1774485;80;20905;-70
2021/05/30 05:12:02;;;;;;;0.60;0.30;;;;;;;25.81;47.18;100266.72;1774439;80;21435;-69
2021/05/30 05:14:29;;;;;;;3.15;0.50;;;;;;;25.91;46.47;100267.73;1774419;80;21088;-70
2021/05/30 05:16:55;;;;;;;2.65;0.40;;;;;;;25.82;45.74;100265.70;1774437;80;21407;-70
2021/05/30 05:19:22;;;;;;;0.78;0.55;;;;;;;25.75;45.86;100262.17;1774192;80;20922;-71
2021/05/30 05:21:49;;;;;;;2.92;0.40;;;;;;;25.75;45.81;100262.17;1774467;80;21014;-70
2021/05/30 05:24:16;;;;;;;4.67;0.75;;;;;;;25.63;45.54;100269.95;1774542;80;21542;-69
2021/05/30 05:26:43;;;;;;;0.57;0.57;;;;;;;25.63;45.30;100272.14;1774501;80;21084;-70
2021/05/30 05:29:10;;;;;;;1.90;0.65;;;;;;;25.59;45.50;100276.25;1774510;80;20875;-69
2021/05/30 05:31:37;;;;;;;3.75;0.62;;;;;;;25.51;45.63;100274.23;1774621;80;20994;-70
2021/05/30 05:34:04;;;;;;;1.50;0.40;;;;;;;25.48;45.79;100268.75;1774429;80;20903;-70
2021/05/30 05:36:31;;;;;;;0.35;0.35;;;;;;;25.47;46.41;100271.63;1774647;80;20867;-69
2021/05/30 05:38:58;;;;;;;0.53;0.20;;;;;;;25.55;46.38;100271.48;1774560;80;21074;-70
2021/05/30 05:41:25;;;;;;;0.42;0.42;;;;;;;25.67;45.72;100272.55;1774965;80;20899;-71
2021/05/30 05:43:52;;;;;;;1.40;0.50;;;;;;;25.84;44.92;100273.88;1777597;79;20847;-77
2021/05/30 05:46:20;;;;;;;2.35;0.40;;;;;;;26.03;44.91;100276.36;1777030;80;20977;-72
2021/05/30 05:48:46;;;;;;;4.22;0.40;;;;;;;26.18;43.70;100276.70;1776123;80;21005;-71
2021/05/30 05:51:13;;;;;;;0.40;0.25;;;;;;;26.35;43.75;100273.13;1776960;80;21058;-72
2021/05/30 05:53:40;;;;;;;0.80;0.33;;;;;;;26.53;43.39;100274.70;1776877;80;20994;-72
2021/05/30 05:56:07;;;;;;;0.90;0.30;;;;;;;26.71;42.09;100274.13;1777967;80;20867;-72
2021/05/30 05:58:34;;;;;;;4.92;0.30;;;;;;;26.79;41.20;100272.58;1776670;80;21400;-71
2021/05/30 06:01:01;;;;;;;0.45;0.13;;;;;;;26.88;41.79;100269.98;1777155;80;20886;-71
2021/05/30 06:03:28;;;;;;;2.35;0.40;;;;;;;27.03;41.06;100267.58;1775332;80;21034;-72
2021/05/30 06:06:04;;;;;;;1.40;0.53;;;;;;;27.17;40.85;100271.08;1780680;80;20946;-73
2021/05/30 06:08:32;;;;;;;0.28;0.10;;;;;;;27.31;40.25;100275.45;1754770;80;21383;-73
2021/05/30 06:10:59;;;;;;;2.60;0.45;;;;;;;27.45;39.88;100275.70;1780314;80;20919;-71
2021/05/30 06:13:26;;;;;;;1.02;0.20;;;;;;;27.60;39.36;100272.77;1780582;80;21447;-74
2021/05/30 06:15:55;;;;;;;1.27;0.20;;;;;;;27.76;38.98;100282.24;1780313;80;20854;-74
2021/05/30 06:18:23;;;;;;;3.27;0.33;;;;;;;27.90;39.36;100279.84;1780480;80;20902;-76
2021/05/30 06:20:50;;;;;;;2.98;0.50;;;;;;;28.10;38.62;100278.41;1780498;80;20954;-77
2021/05/30 06:23:17;;;;;;;1.17;0.40;;;;;;;28.27;37.87;100276.00;1780573;80;20974;-75
2021/05/30 06:25:46;;;;;;;3.05;0.30;;;;;;;28.40;38.39;100278.33;1780679;80;21423;-77
2021/05/30 06:28:16;;;;;;;1.70;0.40;;;;;;;28.66;38.33;100285.44;1781119;80;21094;-78
2021/05/30 06:30:46;;;;;;;1.65;0.70;;;;;;;28.86;38.52;100283.93;1780988;80;20942;-78
2021/05/30 06:33:15;;;;;;;0.35;0.20;;;;;;;29.04;38.36;100285.31;1780493;80;20898;-78
2021/05/30 06:35:43;;;;;;;1.65;0.45;;;;;;;29.17;37.13;100278.16;1780965;80;21466;-78
2021/05/30 06:38:10;;;;;;;1.15;0.45;;;;;;;28.92;37.47;100280.33;1780903;80;20985;-79
2021/05/30 06:41:04;;;;;;;2.10;0.50;;;;;;;28.79;37.86;100290.73;1778203;80;21828;-78
2021/05/30 06:43:15;;;;;;;3.67;0.80;;;;;;;28.44;38.27;100288.45;1743029;80;20926;-78
2021/05/30 06:45:42;;;;;;;2.60;0.50;;;;;;;28.04;38.77;100296.78;1780544;80;20899;-78
2021/05/30 06:48:09;;;;;;;1.35;0.30;;;;;;;27.63;39.21;100292.54;1780441;80;20902;-78
2021/05/30 06:50:36;;;;;;;1.35;0.30;;;;;;;27.27;40.02;100306.52;1780391;80;20966;-78
2021/05/30 06:53:03;;;;;;;1.90;0.40;;;;;;;27.12;41.01;100302.66;1780400;80;21068;-77
2021/05/30 06:55:30;;;;;;;1.52;0.45;;;;;;;27.18;39.97;100301.84;1780317;80;20961;-79
2021/05/30 06:58:00;;;;;;;1.95;0.30;;;;;;;27.37;39.93;100302.04;1780296;80;20915;-77
2021/05/30 07:00:27;;;;;;;0.53;0.30;;;;;;;27.70;39.04;100303.30;1780406;80;20914;-77
2021/05/30 07:02:54;;;;;;;3.25;0.55;;;;;;;27.91;38.54;100298.19;1780487;80;20902;-76
2021/05/30 07:05:25;;;;;;;0.70;0.35;;;;;;;27.91;38.75;100300.88;1781818;80;21407;-77
2021/05/30 07:07:52;;;;;;;1.98;0.50;;;;;;;27.97;38.70;100300.03;1783034;80;20899;-78
2021/05/30 07:10:19;;;;;;;3.17;0.47;;;;;;;27.96;39.20;100309.67;1783053;80;20965;-75
2021/05/30 07:12:46;;;;;;;0.68;0.30;;;;;;;27.79;39.23;100303.89;1782812;80;21613;-79
2021/05/30 07:15:14;;;;;;;2.85;0.35;;;;;;;27.75;39.81;100308.05;1783241;80;20937;-79
2021/05/30 07:17:44;;;;;;;1.75;0.40;;;;;;;27.61;39.93;100312.13;1783210;80;22024;-78
2021/05/30 07:20:16;;;;;;;2.45;0.95;;;;;;;27.69;39.25;100315.13;1782806;80;20922;-78
2021/05/30 07:22:43;;;;;;;0.47;0.30;;;;;;;27.57;39.34;100316.80;1783156;80;21376;-78
2021/05/30 07:25:10;;;;;;;1.40;0.50;;;;;;;27.64;38.69;100310.38;1782946;80;20985;-78
2021/05/30 07:27:39;;;;;;;0.98;0.35;;;;;;;27.56;39.03;100321.91;1783122;80;21001;-78
2021/05/30 07:30:08;;;;;;;0.55;0.35;;;;;;;27.42;39.58;100311.16;1783079;80;21593;-76
2021/05/30 07:32:35;;;;;;;1.80;0.30;;;;;;;27.27;40.51;100307.34;1783104;80;20978;-78
2021/05/30 07:35:01;;;;;;;0.50;0.50;;;;;;;27.48;40.10;100308.97;1783094;80;21073;-78
2021/05/30 07:37:30;;;;;;;0.37;0.37;;;;;;;27.38;40.20;100322.03;1782986;80;21471;-77
2021/05/30 07:39:59;;;;;;;1.27;0.60;;;;;;;27.33;40.31;100321.84;1782447;80;20986;-77
2021/05/30 07:42:25;;;;;;;1.12;0.30;;;;;;;27.44;39.91;100323.90;1782076;80;21161;-76
2021/05/30 07:44:54;;;;;;;2.60;0.33;;;;;;;27.51;40.08;100318.50;1782829;80;20894;-77
2021/05/30 07:47:23;;;;;;;1.07;0.50;;;;;;;27.64;39.63;100328.42;1782845;80;21388;-77
2021/05/30 07:49:51;;;;;;;2.80;0.33;;;;;;;27.78;39.69;100328.67;1782904;80;21501;-78
2021/05/30 07:52:17;;;;;;;3.08;0.20;;;;;;;28.05;38.90;100331.30;1783026;80;20985;-78
2021/05/30 07:54:45;;;;;;;1.55;0.85;;;;;;;28.38;38.09;100340.57;1783031;80;21254;-81
2021/05/30 07:57:12;;;;;;;0.30;0.30;;;;;;;28.64;37.47;100326.13;1782946;80;20906;-79
2021/05/30 07:59:40;;;;;;;3.30;0.45;;;;;;;28.70;37.24;100330.66;1783052;80;20998;-77
2021/05/30 08:02:07;;;;;;;1.35;0.40;;;;;;;28.88;36.82;100338.50;1783015;80;21094;-78
2021/05/30 08:04:34;;;;;;;4.12;0.40;;;;;;;29.07;36.55;100342.92;1780085;80;20918;-77
2021/05/30 08:07:01;;;;;;;0.75;0.30;;;;;;;29.17;36.06;100337.56;1774520;80;21079;-78
2021/05/30 08:09:28;;;;;;;1.50;0.20;;;;;;;29.29;35.52;100343.38;1774258;80;21483;-77
2021/05/30 08:11:58;;;;;;;1.95;0.50;;;;;;;29.39;34.54;100344.74;1774536;80;20918;-69
2021/05/30 08:14:26;;;;;;;0.47;0.40;;;;;;;29.31;35.28;100345.33;1774493;80;20886;-70
2021/05/30 08:16:53;;;;;;;3.30;0.40;;;;;;;29.35;34.96;100341.67;1774544;80;20906;-69
2021/05/30 08:19:20;;;;;;;0.78;0.35;;;;;;;29.44;34.41;100343.56;1774592;80;21050;-68
2021/05/30 08:21:48;;;;;;;0.88;0.50;;;;;;;29.49;35.00;100342.36;1774350;80;21478;-68
2021/05/30 08:24:15;;;;;;;3.85;0.80;;;;;;;29.71;34.71;100344.95;1774485;80;20910;-68
2021/05/30 08:26:42;;;;;;;2.05;0.40;;;;;;;29.99;33.69;100335.47;1774629;80;21415;-68
2021/05/30 08:29:09;;;;;;;1.32;0.60;;;;;;;30.22;33.48;100346.13;1774521;80;20950;-68
2021/05/30 08:31:35;;;;;;;0.70;0.30;;;;;;;30.39;33.39;100344.97;1774404;80;21066;-69
2021/05/30 08:34:02;;;;;;;3.35;0.45;;;;;;;30.54;32.93;100346.20;1774584;80;21404;-71
2021/05/30 08:36:29;;;;;;;0.78;0.40;;;;;;;30.68;32.72;100347.36;1774525;80;21427;-72
2021/05/30 08:38:56;;;;;;;3.65;0.40;;;;;;;30.67;31.99;100346.54;1774348;80;20874;-71
2021/05/30 08:41:22;;;;;;;0.30;0.30;;;;;;;30.60;31.98;100355.30;1774455;80;20882;-68
2021/05/30 08:43:49;;;;;;;2.75;0.50;;;;;;;30.56;31.71;100347.33;1774413;80;20990;-70
2021/05/30 08:46:18;;;;;;;3.55;0.50;;;;;;;30.57;32.46;100355.23;1774271;80;21022;-70
2021/05/30 08:48:45;;;;;;;1.50;0.50;;;;;;;30.64;32.29;100359.20;1774517;80;21408;-68
2021/05/30 08:51:12;;;;;;;2.55;0.40;;;;;;;30.72;32.07;100360.73;1774392;80;20918;-67
2021/05/30 08:53:42;;;;;;;2.52;0.53;;;;;;;30.75;32.20;100348.10;1774317;80;20930;-69
2021/05/30 08:56:12;;;;;;;1.37;0.53;;;;;;;30.87;32.40;100345.44;1774401;80;21733;-70
2021/05/30 08:58:48;;;;;;;1.77;1.27;;;;;;;31.04;32.73;100342.86;1774597;80;20978;-70
2021/05/30 09:01:20;;;;;;;1.25;0.78;;;;;;;31.14;32.10;100346.64;1753490;80;21065;-70
2021/05/30 09:04:04;;;;;;;;;;;;;;;31.39;31.96;100350.99;1777117;80;21010;-69
2021/05/30 09:06:31;;;;;;;5.33;0.40;;;;;;;31.55;31.53;100351.69;1774490;80;20179;-72
2021/05/30 09:08:59;;;;;;;3.10;0.28;;;;;;;31.55;30.44;100363.03;1774525;80;21503;-70
2021/05/30 09:11:48;;;;;;;2.00;0.47;;;;;;;31.53;30.51;100357.05;1774350;80;21408;-69
2021/05/30 09:14:25;;;;;;;3.98;0.40;;;;;;;31.54;30.58;100362.22;1774496;80;20890;-70
2021/05/30 09:17:00;;;;;;;1.05;0.50;;;;;;;31.57;31.15;100364.47;1774287;80;20938;-72
2021/05/30 09:19:50;;;;;;;1.07;0.72;;;;;;;31.66;30.13;100369.00;1774461;80;20950;-73
2021/05/30 09:22:33;;;;;;;1.57;0.45;;;;;;;31.66;30.40;100361.38;1773619;80;21108;-71
2021/05/30 09:25:11;;;;;;;0.30;0.30;;;;;;;31.75;30.50;100370.79;1774440;80;21491;-69
2021/05/30 09:27:46;;;;;;;0.93;0.25;;;;;;;31.65;29.10;100376.01;1774626;80;20915;-71
2021/05/30 09:30:26;;;;;;;1.70;0.37;;;;;;;31.53;30.11;100370.61;1774586;80;20906;-70
2021/05/30 09:33:19;;;;;;;2.05;0.57;;;;;;;31.56;30.38;100370.94;1774570;80;20910;-69
2021/05/30 09:35:53;;;;;;;1.95;0.62;;;;;;;31.72;30.54;100377.52;1753075;80;21032;-70
2021/05/30 09:38:23;;;;;;;4.30;0.33;;;;;;;31.86;29.67;100373.19;1774719;80;20946;-69
2021/05/30 09:41:06;;;;;;;1.02;0.42;;;;;;;31.99;29.73;100381.95;1774583;80;20958;-70
2021/05/30 09:43:53;;;;;;;1.57;0.40;;;;;;;32.09;29.29;100385.39;1774540;80;21404;-70
2021/05/30 09:46:25;;;;;;;1.75;0.33;;;;;;;32.01;29.33;100385.22;1774634;80;21453;-69
2021/05/30 09:48:57;;;;;;;3.22;0.33;;;;;;;31.95;28.99;100383.96;1774022;80;21077;-71
2021/05/30 09:51:32;;;;;;;1.65;0.30;;;;;;;31.89;29.96;100387.11;1774588;80;21403;-73
2021/05/30 09:54:11;;;;;;;2.37;0.20;;;;;;;31.80;29.96;100387.19;1774161;80;20870;-68
2021/05/30 09:56:48;;;;;;;0.40;0.40;;;;;;;31.71;30.06;100393.52;1774500;80;20981;-68
2021/05/30 09:59:19;;;;;;;0.55;0.40;;;;;;;31.59;30.27;100388.61;1774592;80;20914;-68
2021/05/30 10:01:54;;;;;;;1.90;0.60;;;;;;;31.52;30.68;100394.16;1774426;80;21817;-70
2021/05/30 10:04:22;;;;;;;0.75;0.30;;;;;;;31.64;30.72;100388.75;1774441;80;21029;-72
2021/05/30 10:06:50;;;;;;;0.72;0.60;;;;;;;31.66;30.18;100389.84;1780155;80;21495;-70
2021/05/30 10:09:18;;;;;;;2.17;0.50;;;;;;;31.66;30.63;100387.98;1780236;80;20969;-69
2021/05/30 10:11:44;;;;;;;4.97;0.40;;;;;;;31.75;30.15;100391.12;1780393;80;20982;-71
2021/05/30 10:14:11;;;;;;;0.93;0.20;;;;;;;31.84;30.26;100391.08;1780297;80;20995;-70
2021/05/30 10:16:38;;;;;;;3.85;0.30;;;;;;;31.95;30.04;100392.09;1780133;80;21013;-70
2021/05/30 10:19:25;;;;;;;3.02;0.42;;;;;;;31.79;28.81;100393.16;1780435;80;20989;-73
2021/05/30 10:21:55;;;;;;;0.90;0.37;;;;;;;31.56;29.95;100393.16;1780326;80;21355;-72
2021/05/30 10:24:22;;;;;;;3.08;0.60;;;;;;;31.49;29.50;100391.11;1780018;80;20978;-72
2021/05/30 10:27:26;;;;;;;1.37;0.30;;;;;;;31.45;30.36;100392.64;1780363;80;21088;-70
2021/05/30 10:30:13;;;;;;;0.55;0.30;;;;;;;31.45;30.12;100383.16;1774609;80;20934;-70
2021/05/30 10:32:46;;;;;;;1.12;0.30;;;;;;;31.53;29.99;100395.00;1780230;80;21356;-69
2021/05/30 10:35:24;;;;;;;2.30;0.35;;;;;;;31.58;29.98;100388.33;1780358;80;20954;-71
2021/05/30 10:37:54;;;;;;;1.67;0.30;;;;;;;31.58;30.05;100393.22;1780279;80;20981;-69
2021/05/30 10:40:35;;;;;;;0.85;0.40;;;;;;;31.52;29.84;100394.69;1779911;80;22055;-71
2021/05/30 10:43:12;;;;;;;2.42;0.30;;;;;;;31.47;29.16;100389.98;1780203;80;21442;-72
2021/05/30 10:45:57;;;;;;;3.87;0.50;;;;;;;31.48;29.78;100386.73;1780214;80;20973;-71
2021/05/30 10:48:24;;;;;;;1.87;0.40;;;;;;;31.54;29.78;100387.16;1780195;80;21041;-70
2021/05/30 10:53:43;;;;;;;;;;;;;;;31.39;29.67;100388.44;1782795;80;20930;-69
2021/05/30 10:56:37;;;;;;;1.72;0.20;;;;;;;31.40;30.29;100399.55;1780335;80;20143;-70
2021/05/30 10:59:15;;;;;;;2.77;0.70;;;;;;;31.38;29.98;100409.80;1780263;80;21051;-73
2021/05/30 11:01:44;;;;;;;1.67;0.30;;;;;;;31.38;29.69;100401.67;1780179;80;20982;-71
2021/05/30 11:04:28;;;;;;;1.05;0.40;;;;;;;31.33;29.51;100403.45;1780238;80;21458;-71
2021/05/30 11:07:04;;;;;;;1.87;0.40;;;;;;;31.25;29.62;100394.30;1782548;80;20918;-73
2021/05/30 11:10:01;;;;;;;2.15;0.30;;;;;;;31.19;30.58;100396.05;1782865;80;21065;-71
2021/05/30 11:12:37;;;;;;;2.85;0.42;;;;;;;31.04;30.82;100411.92;1783087;80;21387;-71
2021/05/30 11:15:19;;;;;;;0.50;0.50;;;;;;;30.90;30.37;100408.06;1781297;80;20954;-70
2021/05/30 11:17:51;;;;;;;1.12;0.30;;;;;;;30.79;30.98;100411.54;1783064;80;20933;-70
2021/05/30 11:20:44;;;;;;;1.17;0.37;;;;;;;30.64;31.75;100419.25;1782928;80;21012;-69
2021/05/30 11:23:14;;;;;;;2.15;0.45;;;;;;;30.46;30.92;100408.80;1782888;80;21486;-69
2021/05/30 11:25:48;;;;;;;2.77;0.30;;;;;;;30.22;31.22;100402.94;1782576;80;21502;-70
2021/05/30 11:28:19;;;;;;;0.47;0.47;;;;;;;30.03;31.22;100409.69;1783045;80;20914;-69
2021/05/30 11:31:04;;;;;;;1.90;0.85;;;;;;;29.81;31.70;100405.25;1783042;80;21320;-69
2021/05/30 11:33:40;;;;;;;15.18;1.67;;;;;;;29.68;32.54;100418.40;1782882;80;21446;-69
2021/05/30 11:36:06;;;;;;;2.33;0.62;;;;;;;29.44;32.60;100407.06;1782512;80;21355;-69
2021/05/30 11:38:51;;;;;;;1.72;0.82;;;;;;;29.19;32.48;100416.50;1783088;80;21403;-69
2021/05/30 11:41:19;;;;;;;1.02;0.70;;;;;;;28.87;32.64;100421.89;1782637;80;21033;-70